Forside
METAR-TAF:

METAR-TAF

Lufthavne :

Sønderborg Lufthavn

Sønderborg, Danmark

Breddekreds: 54-58N, længdekreds: 009-47E, højde: 7 m

Aktuelle vejr

Denne rapport blev lavet for 19 minutter siden, kl. 03:50 UTC
Vind 12 kt fra vestsydvest med vindstød på up til 24 kt, varierende mellem sydsydvest og vest
Temperatur 6°C
Fugtighed 87%
Tryk 1011 hPa
Sigt 10 km eller mere

METAR: EKSB 180350Z AUTO 24012G24KT 210V270 9999NDV BKN015/// 06/04 Q1011

Tid: 05:09 (04:09 UTC)

Vejrudsigter

Denne rapport blev lavet for 10 timer og 15 minutter siden, kl. 17:54 UTC
Foreløbig gælder fra 17 på 18 UTC til 17 på 23 UTC
Vind 12 kt fra syd
Sigt 10 km eller mere
Spredte skyer i en højde af 2500 ft
ændring
fra 17 på 18 UTC til 17 på 21 UTC
Vind 10 kt fra sydvest
Sigt: 4000 m
Brudte skyer i en højde af 800 ft
regn, finregn, dis
Midlertidig
fra 17 på 21 UTC til 17 på 23 UTC
Sigt: 6000 m
Brudte skyer i en højde af 1500 ft

TAF: EKSB 171754Z 1718/1723 17012KT 9999 SCT025 BECMG 1718/1721 23010KT 4000 RADZ BR BKN008 TEMPO 1721/1723 6000 NSW BKN015

Vejrobservationer og prognoser fra mere end 4000 lufthavne (METAR og TAF).

De gule og røde prikker repræsenterer de meteorologiske stationer.

Flyt musen over at se navnet på stationen.

Så klik over at se vejr observationer og prognoser.

At skifte det kort: Klik på de grønne knapper med et sort kors for at zoome ind; på den grønne knap med en bindestreg for at zoome ud; eller på de grønne pile for tilstødende kort.


METAR-TAF: